createdAt,value
2019-03-25T14:01:11.193Z,101213.34
2019-03-25T14:03:42.503Z,101215.70
2019-03-25T14:06:14.374Z,101216.14
2019-03-25T14:08:45.536Z,101224.45
2019-03-25T14:11:16.661Z,101233.30
2019-03-25T14:13:49.525Z,101233.55
2019-03-25T14:16:20.815Z,101235.72
2019-03-25T14:18:52.964Z,101237.95
2019-03-25T14:21:24.865Z,101236.08
2019-03-25T14:23:56.385Z,101239.32
2019-03-25T14:26:26.337Z,101242.28
2019-03-25T14:29:01.222Z,101240.09
2019-03-25T14:31:32.654Z,101243.66
2019-03-25T14:34:04.016Z,101237.95
2019-03-25T14:36:35.520Z,101240.70
2019-03-25T14:39:06.237Z,101240.42
2019-03-25T14:41:38.418Z,101243.02
2019-03-25T14:44:09.537Z,101251.20
2019-03-25T14:46:40.663Z,101258.59
2019-03-25T14:49:11.577Z,101266.63
2019-03-25T14:51:43.239Z,101265.80
2019-03-25T14:54:15.379Z,101262.06
2019-03-25T14:56:46.148Z,101265.58
2019-03-25T14:59:17.291Z,101271.08
2019-03-25T15:01:48.623Z,101267.23
2019-03-25T15:04:20.043Z,101265.58
2019-03-25T15:06:50.649Z,101271.02
2019-03-25T15:09:21.635Z,101270.41
2019-03-25T15:11:52.430Z,101267.87
2019-03-25T15:14:24.754Z,101263.18
2019-03-25T15:17:10.097Z,101269.16
2019-03-25T15:19:42.555Z,101269.44
2019-03-25T15:22:14.941Z,101271.31
2019-03-25T15:24:46.292Z,101275.05
2019-03-25T15:27:17.891Z,101265.85
2019-03-25T15:29:49.197Z,101273.02
2019-03-25T15:32:23.399Z,101279.27
2019-03-25T15:34:55.248Z,101281.64
2019-03-25T15:37:25.888Z,101285.09
2019-03-25T15:39:56.872Z,101281.30
2019-03-25T15:42:28.118Z,101277.55
2019-03-25T15:45:01.533Z,101277.25
2019-03-25T15:47:33.595Z,101268.01
2019-03-25T15:50:04.808Z,101272.23
2019-03-25T15:52:35.069Z,101264.73
2019-03-25T15:55:08.425Z,101268.94
2019-03-25T15:57:39.861Z,101264.89
2019-03-25T16:00:20.432Z,101264.49
2019-03-25T16:02:52.505Z,101259.84
2019-03-25T16:05:23.904Z,101252.21
2019-03-25T16:07:55.207Z,101252.45
2019-03-25T16:10:31.368Z,101249.39
2019-03-25T16:13:02.958Z,101243.99
2019-03-25T16:15:35.974Z,101240.42
2019-03-25T16:18:09.294Z,101243.77
2019-03-25T16:20:40.950Z,101238.28
2019-03-25T16:23:12.125Z,101240.75
2019-03-25T16:25:44.559Z,101234.48
2019-03-25T16:28:18.488Z,101231.29
2019-03-25T16:30:58.801Z,101225.22
2019-03-25T16:33:26.310Z,101218.92
2019-03-25T16:35:57.819Z,101219.48
2019-03-25T16:38:29.049Z,101219.47
2019-03-25T16:41:01.112Z,101219.77
2019-03-25T16:43:32.884Z,101220.05
2019-03-25T16:46:06.104Z,101216.11
2019-03-25T16:48:37.864Z,101206.57
2019-03-25T16:51:09.833Z,101213.98
2019-03-25T16:53:41.085Z,101218.92
2019-03-25T16:56:18.867Z,101206.37
2019-03-25T16:58:50.524Z,101209.72
2019-03-25T17:01:20.923Z,101216.20
2019-03-25T17:03:53.012Z,101212.93
2019-03-25T17:06:23.108Z,101211.75
2019-03-25T17:08:54.867Z,101207.35
2019-03-25T17:11:24.950Z,101201.88
2019-03-25T17:14:05.330Z,101202.25
2019-03-25T17:16:36.968Z,101201.29
2019-03-25T17:19:10.438Z,101197.09
2019-03-25T17:21:41.787Z,101195.72
2019-03-25T17:24:14.402Z,101185.36
2019-03-25T17:26:52.672Z,101180.06
2019-03-25T17:29:23.984Z,101173.00
2019-03-25T17:31:55.562Z,101164.38
2019-03-25T17:34:32.552Z,101164.77
2019-03-25T17:37:04.234Z,101170.12
2019-03-25T17:39:35.557Z,101169.31
2019-03-25T17:42:07.148Z,101159.89
2019-03-25T17:44:45.734Z,101163.19
2019-03-25T17:47:16.909Z,101159.98
2019-03-25T17:49:54.724Z,101157.11
2019-03-25T17:55:15.227Z,101156.95
2019-03-25T17:57:53.779Z,101147.22
2019-03-25T18:00:33.779Z,101143.72
2019-03-25T18:03:11.239Z,101142.22
2019-03-25T18:05:39.851Z,101138.06
2019-03-25T18:08:11.123Z,101134.22
2019-03-25T18:10:44.335Z,101128.58
2019-03-25T18:13:22.307Z,101127.59
2019-03-25T18:15:53.962Z,101126.38
2019-03-25T18:18:25.523Z,101123.62
2019-03-25T18:20:57.257Z,101121.55
2019-03-25T18:23:29.734Z,101116.45
2019-03-25T18:26:01.378Z,101110.87
2019-03-25T18:28:32.706Z,101117.58
2019-03-25T18:31:05.331Z,101119.33
2019-03-25T18:33:36.629Z,101112.95
2019-03-25T18:36:06.410Z,101115.39
2019-03-25T18:38:39.057Z,101110.66
2019-03-25T18:41:17.788Z,101113.86
2019-03-25T18:43:49.500Z,101114.32
2019-03-25T18:46:24.179Z,101110.44
2019-03-25T18:49:02.461Z,101115.45
2019-03-25T18:51:35.911Z,101107.08
2019-03-25T18:54:07.048Z,101106.11
2019-03-25T18:56:39.526Z,101101.13
2019-03-25T18:59:11.136Z,101098.29
2019-03-25T19:01:42.235Z,101092.92
2019-03-25T19:04:13.808Z,101095.83
2019-03-25T19:06:47.478Z,101093.23
2019-03-25T19:09:31.104Z,101086.21
2019-03-25T19:12:03.038Z,101086.02
2019-03-25T19:14:34.231Z,101075.34
2019-03-25T19:17:06.262Z,101075.92
2019-03-25T19:19:44.494Z,101071.28
2019-03-25T19:22:22.938Z,101072.35
2019-03-25T19:24:55.846Z,101066.61
2019-03-25T19:27:28.968Z,101064.55
2019-03-25T19:30:00.698Z,101062.10
2019-03-25T19:32:41.722Z,101062.93
2019-03-25T19:35:13.689Z,101058.72
2019-03-25T19:37:47.155Z,101060.55
2019-03-25T19:40:18.507Z,101050.97
2019-03-25T19:42:56.714Z,101052.41
2019-03-25T19:45:29.105Z,101055.27
2019-03-25T19:48:06.812Z,101050.75
2019-03-25T19:50:38.766Z,101049.84
2019-03-25T19:53:18.967Z,101048.34
2019-03-25T19:55:49.762Z,101045.97
2019-03-25T19:58:25.658Z,101049.59
2019-03-25T20:00:58.458Z,101053.02
2019-03-25T20:03:32.854Z,101054.23
2019-03-25T20:06:08.745Z,101054.67
2019-03-25T20:08:46.696Z,101046.11
2019-03-25T20:11:17.615Z,101039.31
2019-03-25T20:13:55.850Z,101042.48
2019-03-25T20:16:33.766Z,101045.56
2019-03-25T20:19:05.085Z,101048.61
2019-03-25T20:21:36.215Z,101052.67
2019-03-25T20:24:07.516Z,101048.34
2019-03-25T20:26:38.752Z,101046.12
2019-03-25T20:29:09.968Z,101053.83
2019-03-25T20:31:40.631Z,101055.09
2019-03-25T20:34:12.274Z,101051.69
2019-03-25T20:36:47.672Z,101051.61
2019-03-25T20:39:19.291Z,101052.45
2019-03-25T20:41:50.222Z,101047.49
2019-03-25T20:44:23.177Z,101045.48
2019-03-25T20:46:55.449Z,101046.67
2019-03-25T20:49:27.479Z,101047.82
2019-03-25T20:51:59.184Z,101041.67
2019-03-25T20:54:29.361Z,101044.75
2019-03-25T20:57:01.073Z,101044.83
2019-03-25T20:59:40.707Z,101051.09
2019-03-25T21:02:11.950Z,101049.08
2019-03-25T21:04:43.234Z,101055.75
2019-03-25T21:07:13.201Z,101049.55
2019-03-25T21:09:45.219Z,101062.36
2019-03-25T21:12:16.709Z,101056.05
2019-03-25T21:14:46.399Z,101057.17
2019-03-25T21:17:17.409Z,101053.91
2019-03-25T21:19:51.160Z,101053.94
2019-03-25T21:22:22.251Z,101051.80
2019-03-25T21:24:53.836Z,101048.89
2019-03-25T21:27:24.795Z,101053.26
2019-03-25T21:29:55.990Z,101052.05
2019-03-25T21:32:33.641Z,101059.83
2019-03-25T21:35:05.578Z,101064.06
2019-03-25T21:37:38.901Z,101064.37
2019-03-25T21:40:18.627Z,101064.91
2019-03-25T21:42:55.072Z,101064.77
2019-03-25T21:45:26.551Z,101068.31
2019-03-25T21:48:03.889Z,101068.38
2019-03-25T21:50:35.696Z,101070.87
2019-03-25T21:53:07.324Z,101071.80
2019-03-25T21:55:38.573Z,101068.61
2019-03-25T21:58:10.417Z,101068.20
2019-03-25T22:00:41.750Z,101066.47
2019-03-25T22:03:25.205Z,101069.23
2019-03-25T22:06:03.783Z,101073.64
2019-03-25T22:08:41.640Z,101067.19
2019-03-25T22:11:19.747Z,101070.09
2019-03-25T22:13:51.302Z,101076.59
2019-03-25T22:16:29.743Z,101088.35
2019-03-25T22:19:01.075Z,101091.60
2019-03-25T22:21:33.332Z,101093.72
2019-03-25T22:24:12.039Z,101095.49
2019-03-25T22:26:49.898Z,101093.44
2019-03-25T22:29:21.661Z,101095.20
2019-03-25T22:31:53.277Z,101093.08
2019-03-25T22:34:30.807Z,101096.87
2019-03-25T22:37:08.921Z,101102.13
2019-03-25T22:39:39.887Z,101106.78
2019-03-25T22:42:11.131Z,101104.94
2019-03-25T22:44:42.496Z,101104.89
